Time;durP1;ratioP1;P1;durP2;ratioP2;P2;SDS_P1;SDS_P2;PMS_P1;PMS_P2;Temp;Humidity;BMP_temperature;BMP_pressure;BME280_temperature;BME280_humidity;BME280_pressure;Samples;Min_cycle;Max_cycle;Signal;HPM_P1;HPM_P2
2022/11/11 00:02:39;;;;;;;25.20;8.85;;;;;;;8.92;90.89;102459.47;5036898;28;20041;-59
2022/11/11 00:05:26;;;;;;;19.92;7.70;;;;;;;8.92;90.64;102462.13;5018062;28;20041;-59
2022/11/11 00:08:13;;;;;;;25.27;8.93;;;;;;;8.89;90.73;102470.25;5036494;28;20502;-59
2022/11/11 00:11:01;;;;;;;20.00;8.10;;;;;;;8.86;90.64;102488.97;5036274;28;20093;-59
2022/11/11 00:13:48;;;;;;;26.70;9.77;;;;;;;8.91;90.46;102490.34;5036290;28;20045;-58
2022/11/11 00:25:55;;;;;;;18.50;8.73;;;;;;;8.91;90.39;102505.41;5035990;28;20053;-59
2022/11/11 00:28:47;;;;;;;19.48;8.95;;;;;;;8.87;90.43;102501.25;5035648;28;20709;-59
2022/11/11 00:31:34;;;;;;;25.23;9.27;;;;;;;8.92;90.50;102501.81;5035860;28;20725;-58
2022/11/11 00:34:21;;;;;;;25.55;9.52;;;;;;;8.86;90.47;102494.25;5035523;28;20076;-59
2022/11/11 00:37:07;;;;;;;24.35;9.73;;;;;;;8.77;91.25;102491.28;5035588;28;20128;-59
2022/11/11 00:39:54;;;;;;;26.05;9.32;;;;;;;8.78;91.12;102490.31;4998246;28;20511;-59
2022/11/11 00:42:41;;;;;;;26.35;9.48;;;;;;;8.76;91.31;102484.28;5035632;28;20112;-58
2022/11/11 00:45:28;;;;;;;21.13;10.13;;;;;;;8.80;90.80;102482.28;5035467;28;20056;-59
2022/11/11 00:51:21;;;;;;;25.75;9.65;;;;;;;8.64;91.10;102493.88;5035067;28;20041;-59
2022/11/11 00:54:08;;;;;;;23.85;10.23;;;;;;;8.74;91.27;102488.81;5035256;28;20468;-59
2022/11/11 00:56:55;;;;;;;23.50;9.65;;;;;;;8.55;92.13;102486.53;5035152;28;20459;-59
2022/11/11 00:59:42;;;;;;;22.35;9.25;;;;;;;8.51;92.22;102485.00;5020836;28;20124;-59
2022/11/11 01:02:29;;;;;;;26.75;9.95;;;;;;;8.53;92.68;102490.19;5034677;28;20045;-58
2022/11/11 01:05:15;;;;;;;27.17;9.32;;;;;;;8.56;92.36;102488.19;5034564;28;20064;-59
2022/11/11 01:08:02;;;;;;;23.40;10.32;;;;;;;8.44;92.99;102499.56;5035158;28;20041;-59
2022/11/11 01:10:49;;;;;;;27.73;9.80;;;;;;;8.53;92.76;102503.41;5035194;28;20144;-59
2022/11/11 01:13:36;;;;;;;26.17;10.48;;;;;;;8.45;93.19;102503.91;5034818;28;20037;-59
2022/11/11 01:16:25;;;;;;;26.45;11.10;;;;;;;8.52;92.68;102512.31;5034919;28;20049;-59
2022/11/11 01:19:11;;;;;;;29.25;11.32;;;;;;;8.55;92.16;102507.69;5033675;28;20045;-59
2022/11/11 01:21:58;;;;;;;23.88;10.90;;;;;;;8.57;92.67;102507.59;5025784;28;20120;-59
2022/11/11 01:24:45;;;;;;;23.23;9.93;;;;;;;8.55;92.38;102506.81;5033988;28;20661;-59
2022/11/11 01:27:33;;;;;;;22.23;10.30;;;;;;;8.42;93.16;102512.03;5034625;28;20049;-60
2022/11/11 01:30:20;;;;;;;23.02;10.32;;;;;;;8.50;92.61;102507.13;5034546;28;20061;-59
2022/11/11 01:33:09;;;;;;;24.65;10.10;;;;;;;8.51;92.75;102505.31;5034737;28;20050;-59
2022/11/11 01:36:02;;;;;;;22.40;10.57;;;;;;;8.46;92.88;102508.28;5034346;28;20049;-59
2022/11/11 01:38:50;;;;;;;23.65;10.10;;;;;;;8.38;93.72;102511.34;5024675;28;20077;-59
2022/11/11 01:41:38;;;;;;;20.42;9.88;;;;;;;8.34;93.90;102503.72;5028893;28;20522;-59
2022/11/11 01:44:46;;;;;;;27.40;10.50;;;;;;;8.33;94.31;102502.88;5034461;28;20049;-58
2022/11/11 01:49:17;;;;;;;35.03;10.70;;;;;;;8.13;95.54;102508.53;5019753;28;20395;-59
2022/11/11 01:51:05;;;;;;;27.20;10.05;;;;;;;8.23;95.34;102514.97;5022391;28;20040;-59
2022/11/11 01:53:59;;;;;;;23.03;10.37;;;;;;;8.19;94.55;102506.38;5034086;28;20124;-58
2022/11/11 01:56:49;;;;;;;24.27;10.88;;;;;;;8.30;94.72;102510.16;5034234;28;20107;-59
2022/11/11 01:59:39;;;;;;;28.63;10.60;;;;;;;8.13;95.53;102508.53;5034180;28;20046;-58
2022/11/11 02:02:36;;;;;;;23.13;10.70;;;;;;;8.20;95.50;102508.03;5034050;28;20044;-59
2022/11/11 02:05:56;;;;;;;23.77;11.73;;;;;;;8.19;95.11;102503.72;5033437;28;20049;-59
2022/11/11 02:08:35;;;;;;;25.08;11.27;;;;;;;8.26;94.90;102506.84;5034223;28;20064;-58
2022/11/11 02:14:35;;;;;;;24.30;10.13;;;;;;;8.31;94.24;102511.81;5033235;28;20525;-59
2022/11/11 02:17:24;;;;;;;25.80;10.80;;;;;;;8.34;94.10;102515.13;5033627;28;20495;-59
2022/11/11 02:20:16;;;;;;;25.63;10.43;;;;;;;8.37;94.04;102506.19;5019244;28;20046;-59
2022/11/11 02:23:13;;;;;;;24.00;10.65;;;;;;;8.25;94.03;102510.41;5033691;28;20046;-58
2022/11/11 02:26:01;;;;;;;24.85;10.20;;;;;;;8.22;94.38;102506.19;5034009;28;20045;-58
2022/11/11 02:28:50;;;;;;;24.60;10.98;;;;;;;8.19;94.65;102502.88;5033456;28;20092;-58
2022/11/11 02:31:36;;;;;;;23.88;10.75;;;;;;;8.19;94.60;102509.00;5033419;28;20435;-58
2022/11/11 02:34:31;;;;;;;23.73;10.45;;;;;;;8.18;94.64;102509.09;5033264;28;20049;-59
2022/11/11 02:37:22;;;;;;;24.38;10.20;;;;;;;8.15;94.14;102499.59;5033249;28;20068;-59
2022/11/11 02:40:13;;;;;;;21.70;9.73;;;;;;;8.04;95.33;102502.88;4995298;28;20425;-59
2022/11/11 02:43:00;;;;;;;23.52;10.23;;;;;;;8.07;94.79;102497.38;5033369;28;20041;-59
2022/11/11 02:45:47;;;;;;;22.80;10.32;;;;;;;8.01;95.61;102499.59;5033233;28;20091;-58
2022/11/11 02:48:34;;;;;;;24.42;10.68;;;;;;;7.91;96.15;102496.63;5033183;28;20064;-59
2022/11/11 02:51:20;;;;;;;29.13;11.00;;;;;;;8.01;95.54;102503.06;5033008;28;20135;-59
2022/11/11 02:54:07;;;;;;;23.05;10.25;;;;;;;8.08;94.83;102501.75;5033067;28;20045;-59
2022/11/11 02:57:09;;;;;;;27.85;10.75;;;;;;;8.00;95.09;102500.50;5033099;28;20049;-59
2022/11/11 02:59:58;;;;;;;24.20;9.90;;;;;;;7.99;95.79;102507.59;5033113;28;20441;-59
2022/11/11 03:02:45;;;;;;;27.35;10.57;;;;;;;7.93;95.85;102510.63;5033016;28;20057;-59
2022/11/11 03:05:32;;;;;;;25.38;10.15;;;;;;;7.99;95.29;102514.69;5032082;28;20045;-59
2022/11/11 03:08:18;;;;;;;30.63;10.27;;;;;;;8.07;95.47;102507.13;5032841;28;20483;-59
2022/11/11 03:11:05;;;;;;;26.85;10.70;;;;;;;8.04;95.30;102502.00;5032882;28;20052;-59
2022/11/11 03:13:53;;;;;;;20.05;9.63;;;;;;;8.02;95.15;102498.63;5032659;28;20396;-59
2022/11/11 03:19:48;;;;;;;30.88;10.70;;;;;;;7.94;95.59;102495.63;5031267;28;20040;-59
2022/11/11 03:22:34;;;;;;;27.52;10.63;;;;;;;7.91;95.79;102501.06;5028672;28;20072;-59
2022/11/11 03:25:44;;;;;;;23.30;10.10;;;;;;;7.94;95.85;102504.38;5020604;28;20033;-59
2022/11/11 03:28:30;;;;;;;26.00;10.05;;;;;;;7.91;95.96;102507.19;5032641;28;20049;-58
2022/11/11 03:31:17;;;;;;;25.67;10.48;;;;;;;7.90;95.81;102509.97;5032425;28;20132;-59
2022/11/11 03:34:19;;;;;;;23.05;9.77;;;;;;;7.91;95.62;102503.72;5032606;28;20052;-59
2022/11/11 03:40:15;;;;;;;24.90;10.40;;;;;;;7.81;96.81;102504.28;5032473;28;20499;-59
2022/11/11 03:43:03;;;;;;;26.80;10.25;;;;;;;7.83;96.20;102496.25;5032549;28;20076;-59
2022/11/11 03:45:52;;;;;;;27.42;10.90;;;;;;;7.85;96.40;102489.94;5032539;28;20045;-59
2022/11/11 03:48:38;;;;;;;29.20;11.13;;;;;;;7.68;97.21;102487.47;5032268;28;20080;-59
2022/11/11 03:51:25;;;;;;;25.10;10.85;;;;;;;7.77;97.16;102492.22;5032226;28;20503;-59
2022/11/11 03:54:12;;;;;;;23.98;9.50;;;;;;;7.79;96.48;102489.47;5032325;28;20042;-59
2022/11/11 03:57:29;;;;;;;25.40;9.80;;;;;;;7.74;97.06;102488.91;5032508;28;20132;-59
2022/11/11 04:00:06;;;;;;;25.00;10.57;;;;;;;7.69;97.29;102484.75;5032224;28;20048;-59
2022/11/11 04:16:18;;;;;;;25.42;9.75;;;;;;;7.78;96.40;102495.69;5032530;28;20050;-59
2022/11/11 04:22:00;;;;;;;34.25;10.50;;;;;;;7.72;96.51;102506.63;5031894;28;20041;-59
2022/11/11 04:31:02;;;;;;;25.08;9.65;;;;;;;7.59;97.14;102514.44;5032159;28;20446;-59
2022/11/11 04:33:49;;;;;;;25.40;10.10;;;;;;;7.59;96.70;102509.16;5031928;28;20042;-59
2022/11/11 04:36:35;;;;;;;25.77;10.57;;;;;;;7.60;96.72;102502.94;5032599;28;20521;-59
2022/11/11 04:42:30;;;;;;;24.48;10.38;;;;;;;7.66;96.25;102511.34;5035679;28;20128;-59
2022/11/11 04:45:34;;;;;;;20.52;9.55;;;;;;;7.62;97.09;102512.47;5035674;28;20053;-59
2022/11/11 04:48:21;;;;;;;24.60;10.07;;;;;;;7.64;97.06;102515.00;5035653;28;20132;-59
2022/11/11 04:51:07;;;;;;;24.20;9.80;;;;;;;7.66;96.43;102511.34;5035300;28;20521;-59
2022/11/11 04:53:54;;;;;;;27.73;9.68;;;;;;;7.57;96.71;102511.06;5035435;28;20499;-59
2022/11/11 04:56:49;;;;;;;27.92;9.95;;;;;;;7.72;96.48;102514.56;5035351;28;20072;-59
2022/11/11 04:59:35;;;;;;;25.05;9.52;;;;;;;7.58;96.57;102512.72;5035283;28;20049;-59
2022/11/11 05:08:54;;;;;;;20.40;9.27;;;;;;;7.75;96.30;102511.72;5034440;28;20052;-59
2022/11/11 05:09:10;;;;;;;24.92;10.00;;;;;;;7.75;95.48;102501.16;5035008;28;20067;-59
2022/11/11 05:11:45;;;;;;;21.88;8.85;;;;;;;7.60;95.83;102503.75;5035075;28;20563;-59
2022/11/11 05:21:19;;;;;;;21.65;9.68;;;;;;;7.66;96.23;102497.28;5035082;28;20517;-58
2022/11/11 05:21:20;;;;;;;32.10;9.82;;;;;;;7.63;96.12;102498.31;5033674;28;20513;-60
2022/11/11 05:27:02;;;;;;;20.60;8.73;;;;;;;7.61;96.50;102504.63;5014781;28;20049;-58
2022/11/11 05:29:49;;;;;;;22.17;9.18;;;;;;;7.60;96.03;102509.03;5014945;28;20058;-58
2022/11/11 05:32:36;;;;;;;19.35;9.07;;;;;;;7.62;96.12;102503.69;5014981;28;20046;-59
2022/11/11 05:35:22;;;;;;;18.90;8.63;;;;;;;7.65;96.27;102512.28;5014750;28;20125;-58
2022/11/11 05:38:24;;;;;;;26.83;9.50;;;;;;;7.71;96.29;102524.25;5014679;28;20052;-60
2022/11/11 05:41:11;;;;;;;22.65;9.77;;;;;;;7.68;96.15;102533.22;5014804;28;20050;-60
2022/11/11 05:43:58;;;;;;;19.50;9.27;;;;;;;7.63;96.41;102539.72;5014973;28;20136;-60
2022/11/11 05:46:45;;;;;;;23.27;10.80;;;;;;;7.65;96.30;102543.13;5014712;28;20050;-60
2022/11/11 05:49:32;;;;;;;22.73;9.48;;;;;;;7.76;95.76;102534.56;5014506;28;20050;-59
2022/11/11 05:52:18;;;;;;;22.00;9.15;;;;;;;7.72;95.89;102539.19;5027617;28;20033;-60
2022/11/11 05:55:05;;;;;;;26.38;9.50;;;;;;;7.74;95.62;102532.00;5034402;28;20052;-58
2022/11/11 05:57:52;;;;;;;25.63;9.43;;;;;;;7.56;96.19;102533.94;5034378;28;20041;-59
2022/11/11 06:00:38;;;;;;;25.27;9.93;;;;;;;7.60;96.76;102542.53;5034394;28;20053;-60
2022/11/11 06:03:25;;;;;;;23.00;9.63;;;;;;;7.59;95.82;102544.34;5034466;28;20129;-59
2022/11/11 06:06:13;;;;;;;23.75;9.50;;;;;;;7.66;96.12;102548.31;5018876;28;20045;-58
2022/11/11 06:08:59;;;;;;;24.30;9.77;;;;;;;7.73;95.89;102547.94;5034305;28;20128;-58
2022/11/11 06:11:46;;;;;;;20.65;8.80;;;;;;;7.79;95.68;102552.88;5033860;28;20059;-58
2022/11/11 06:14:33;;;;;;;21.67;8.90;;;;;;;7.69;96.12;102557.84;5033903;28;20132;-58
2022/11/11 06:17:19;;;;;;;26.55;9.95;;;;;;;7.75;95.15;102554.00;5033335;28;20403;-60
2022/11/11 06:20:07;;;;;;;21.10;9.15;;;;;;;7.62;95.33;102548.59;5033995;28;20120;-60
2022/11/11 06:22:55;;;;;;;19.85;9.20;;;;;;;7.76;94.93;102545.13;5015944;28;20076;-60
2022/11/11 06:26:12;;;;;;;17.63;8.70;;;;;;;7.79;94.79;102559.00;5019651;28;20594;-60
2022/11/11 06:28:50;;;;;;;20.17;9.02;;;;;;;7.79;94.55;102560.81;5033189;28;20047;-60
2022/11/11 06:31:37;;;;;;;24.83;9.05;;;;;;;7.76;94.82;102564.47;5033802;28;20586;-61
2022/11/11 06:34:24;;;;;;;25.58;8.85;;;;;;;7.64;95.10;102551.97;5033185;28;20111;-60
2022/11/11 06:37:10;;;;;;;20.83;9.05;;;;;;;7.63;95.28;102561.69;5033492;28;20041;-60
2022/11/11 06:39:57;;;;;;;24.63;9.23;;;;;;;7.64;95.63;102560.78;5033280;28;20041;-60
2022/11/11 06:42:43;;;;;;;18.98;8.93;;;;;;;7.63;96.05;102566.16;5033261;28;20037;-60
2022/11/11 06:45:32;;;;;;;24.65;9.75;;;;;;;7.55;95.71;102571.88;5032951;28;20056;-60
2022/11/11 06:48:22;;;;;;;22.17;9.50;;;;;;;7.63;95.41;102572.28;5032659;28;20061;-60
2022/11/11 06:51:10;;;;;;;25.40;9.38;;;;;;;7.65;95.80;102577.47;5032662;28;20041;-58
2022/11/11 06:53:57;;;;;;;20.23;9.32;;;;;;;7.63;95.53;102584.63;5032441;28;20049;-58
2022/11/11 06:56:46;;;;;;;28.23;9.45;;;;;;;7.59;95.46;102585.75;5032525;28;20045;-60
2022/11/11 06:59:33;;;;;;;23.95;9.82;;;;;;;7.50;96.47;102595.06;5015062;28;20464;-59
2022/11/11 07:02:20;;;;;;;25.75;9.75;;;;;;;7.51;96.62;102596.75;5032972;28;20041;-60
2022/11/11 07:05:07;;;;;;;26.52;9.32;;;;;;;7.54;96.44;102601.03;5017940;28;20069;-60
2022/11/11 07:07:53;;;;;;;23.02;9.68;;;;;;;7.60;96.39;102609.41;5021168;28;20393;-60
2022/11/11 07:10:45;;;;;;;20.40;9.68;;;;;;;7.60;95.45;102612.06;5031395;28;20132;-58
2022/11/11 07:13:31;;;;;;;30.48;10.05;;;;;;;7.64;96.27;102618.00;5032463;28;20041;-61
2022/11/11 07:16:18;;;;;;;22.60;9.77;;;;;;;7.68;95.10;102604.56;5032775;28;20045;-59
2022/11/11 07:19:05;;;;;;;24.42;10.02;;;;;;;7.81;95.63;102603.84;5032723;28;20048;-58
2022/11/11 07:21:52;;;;;;;23.88;9.60;;;;;;;7.80;95.33;102613.53;5031702;28;20124;-59
2022/11/11 07:24:38;;;;;;;29.98;10.85;;;;;;;7.87;94.92;102601.66;5032644;28;20055;-59
2022/11/11 07:27:25;;;;;;;23.08;9.85;;;;;;;7.91;95.13;102610.25;5032125;28;20061;-59
2022/11/11 07:30:12;;;;;;;25.75;8.98;;;;;;;7.97;94.51;102609.06;5032203;28;20084;-59
2022/11/11 07:32:58;;;;;;;31.15;10.10;;;;;;;7.91;94.66;102612.91;5032897;28;20441;-59
2022/11/11 07:35:45;;;;;;;25.40;10.13;;;;;;;8.00;94.76;102612.34;5032357;28;20049;-58
2022/11/11 07:38:32;;;;;;;26.02;9.48;;;;;;;7.86;95.11;102620.28;5032988;28;20087;-59
2022/11/11 07:41:18;;;;;;;24.90;9.18;;;;;;;8.10;94.04;102617.97;5032420;28;20041;-58
2022/11/11 07:44:05;;;;;;;25.75;9.73;;;;;;;8.06;94.61;102625.22;5027835;28;20045;-59
2022/11/11 07:46:51;;;;;;;26.05;9.68;;;;;;;8.01;93.67;102618.50;5032411;28;20051;-54
2022/11/11 07:49:38;;;;;;;28.15;9.80;;;;;;;8.06;94.03;102627.03;5032546;28;20498;-53
2022/11/11 07:52:25;;;;;;;27.35;10.07;;;;;;;8.21;93.56;102626.09;5029062;28;20467;-52
2022/11/11 07:55:12;;;;;;;22.00;9.52;;;;;;;8.24;93.46;102631.22;5032661;28;20076;-53
2022/11/11 07:57:58;;;;;;;26.08;10.02;;;;;;;8.34;92.99;102634.13;5023412;28;20049;-53
2022/11/11 08:00:45;;;;;;;27.88;9.95;;;;;;;8.34;92.90;102634.13;5026700;28;20097;-54
2022/11/11 08:03:31;;;;;;;26.67;10.57;;;;;;;8.52;92.31;102641.94;5026435;28;20128;-54
2022/11/11 08:06:20;;;;;;;24.13;9.82;;;;;;;8.64;91.70;102642.03;5027331;28;20073;-54
2022/11/11 08:09:07;;;;;;;23.13;9.90;;;;;;;8.67;90.81;102645.41;5030691;28;20065;-52
2022/11/11 08:15:04;;;;;;;28.77;11.52;;;;;;;8.62;91.48;102653.63;5034504;28;20068;-54
2022/11/11 08:17:52;;;;;;;21.88;10.10;;;;;;;8.72;90.52;102646.00;5016796;28;20049;-54
2022/11/11 08:20:39;;;;;;;26.75;10.68;;;;;;;8.63;90.88;102637.66;5026454;28;20061;-53
2022/11/11 08:23:32;;;;;;;25.52;10.18;;;;;;;8.68;90.04;102637.41;5030680;28;20044;-53
2022/11/11 08:26:31;;;;;;;24.27;10.55;;;;;;;8.71;91.18;102639.81;5030523;28;20526;-55
2022/11/11 08:29:18;;;;;;;24.33;10.75;;;;;;;8.81;90.44;102640.97;5030838;28;20145;-61
2022/11/11 08:32:04;;;;;;;29.98;10.80;;;;;;;8.97;89.55;102642.66;5030245;28;20045;-58
2022/11/11 08:34:51;;;;;;;28.05;11.18;;;;;;;9.13;88.71;102640.75;5020810;28;20079;-60
2022/11/11 08:37:38;;;;;;;26.52;10.98;;;;;;;8.98;88.39;102639.06;5032580;28;20045;-61
2022/11/11 08:40:24;;;;;;;28.00;10.68;;;;;;;9.02;88.66;102637.91;5011468;28;20034;-61
2022/11/11 08:43:11;;;;;;;24.75;10.40;;;;;;;9.03;88.84;102656.34;5014729;28;20507;-60
2022/11/11 08:46:00;;;;;;;59.70;24.83;;;;;;;9.08;88.90;102652.53;5027879;28;20044;-53
2022/11/11 08:48:47;;;;;;;26.98;10.82;;;;;;;8.97;89.71;102651.44;5025035;28;20045;-68
2022/11/11 08:51:34;;;;;;;20.70;9.82;;;;;;;9.08;89.21;102644.59;5027163;28;20431;-67
2022/11/11 08:54:26;;;;;;;25.17;10.45;;;;;;;9.16;88.83;102642.31;5020279;28;20029;-67
2022/11/11 08:57:12;;;;;;;22.35;10.35;;;;;;;9.35;88.07;102645.50;5021415;28;20038;-67
2022/11/11 08:59:59;;;;;;;25.55;10.68;;;;;;;9.47;87.72;102649.13;5030918;28;20538;-67
2022/11/11 09:02:46;;;;;;;32.90;10.60;;;;;;;9.54;87.16;102653.09;5018644;28;20132;-67
2022/11/11 09:05:33;;;;;;;27.38;10.02;;;;;;;9.66;86.12;102648.78;5021717;28;20041;-68
2022/11/11 09:08:20;;;;;;;23.92;10.93;;;;;;;9.71;85.93;102651.97;5011382;28;20052;-67
2022/11/11 09:11:06;;;;;;;30.17;10.55;;;;;;;9.77;85.36;102648.91;5033527;28;20099;-67
2022/11/11 09:13:53;;;;;;;18.77;9.73;;;;;;;9.77;85.34;102656.88;5032202;28;20564;-67
2022/11/11 09:16:40;;;;;;;25.25;10.07;;;;;;;9.80;85.34;102656.69;5013165;28;20057;-67
2022/11/11 09:19:27;;;;;;;25.50;9.82;;;;;;;9.99;85.08;102661.56;5019366;28;20099;-68
2022/11/11 09:22:13;;;;;;;22.58;9.82;;;;;;;9.98;84.62;102659.88;5013718;28;20099;-67
2022/11/11 09:25:00;;;;;;;22.70;9.32;;;;;;;10.13;84.27;102663.31;5020206;28;20100;-68
2022/11/11 09:28:02;;;;;;;26.65;10.07;;;;;;;10.15;83.83;102658.75;5023634;28;20055;-67
2022/11/11 09:30:48;;;;;;;29.95;9.77;;;;;;;10.12;83.37;102660.75;5015911;28;20053;-67
2022/11/11 09:33:35;;;;;;;23.50;9.55;;;;;;;10.21;83.64;102651.34;5012404;28;20034;-68
2022/11/11 09:36:21;;;;;;;31.67;9.93;;;;;;;10.31;83.18;102658.56;4969725;28;20125;-69
2022/11/11 09:39:08;;;;;;;24.05;9.90;;;;;;;10.28;82.88;102655.25;4994482;28;20121;-68
2022/11/11 09:45:21;;;;;;;25.33;10.13;;;;;;;10.54;82.12;102656.13;5119438;27;20589;-63
2022/11/11 09:50:58;;;;;;;24.92;9.98;;;;;;;10.56;80.71;102662.19;5069882;27;20121;-62
2022/11/11 09:53:51;;;;;;;22.27;9.25;;;;;;;10.64;81.32;102654.53;5046608;28;20052;-63
2022/11/11 09:56:38;;;;;;;23.10;10.05;;;;;;;10.63;81.31;102658.13;5033271;28;20046;-63
2022/11/11 09:59:34;;;;;;;19.65;9.48;;;;;;;10.78;80.71;102660.66;5035419;28;20049;-63
2022/11/11 10:02:31;;;;;;;20.08;9.13;;;;;;;10.75;80.67;102664.38;5046158;28;20049;-63
2022/11/11 10:05:29;;;;;;;19.15;9.20;;;;;;;10.98;79.73;102672.53;5038686;28;20045;-62
2022/11/11 10:08:24;;;;;;;30.08;9.60;;;;;;;11.02;78.73;102663.38;5034730;28;20494;-63
2022/11/11 10:11:21;;;;;;;21.27;8.80;;;;;;;10.99;79.56;102669.78;5030991;28;20102;-63
2022/11/11 10:14:07;;;;;;;23.10;8.95;;;;;;;11.02;78.93;102666.03;5043928;28;20033;-63
2022/11/11 10:17:34;;;;;;;20.00;8.80;;;;;;;10.98;78.98;102668.06;5048657;28;20558;-63
2022/11/11 10:20:28;;;;;;;25.92;9.43;;;;;;;11.01;78.91;102672.31;5034784;28;20025;-63
2022/11/11 10:23:18;;;;;;;28.80;9.82;;;;;;;11.05;78.20;102669.31;5012504;28;20168;-63
2022/11/11 10:26:19;;;;;;;33.88;10.50;;;;;;;11.10;77.80;102677.81;5040248;28;20132;-61
2022/11/11 10:29:14;;;;;;;27.08;10.90;;;;;;;11.16;77.81;102678.34;5024585;28;20690;-63
2022/11/11 10:32:10;;;;;;;22.77;8.50;;;;;;;11.42;77.42;102679.94;5032318;28;20049;-62
2022/11/11 10:35:18;;;;;;;19.33;8.45;;;;;;;11.70;76.25;102673.44;5038580;28;20114;-62
2022/11/11 10:38:24;;;;;;;19.48;8.60;;;;;;;11.80;75.53;102678.06;5025615;28;20045;-64
2022/11/11 10:41:37;;;;;;;19.27;8.68;;;;;;;11.95;74.65;102674.28;5038529;28;20790;-63
2022/11/11 10:44:27;;;;;;;21.02;9.13;;;;;;;12.67;72.56;102673.19;5025602;28;20064;-63
2022/11/11 10:47:44;;;;;;;20.92;8.60;;;;;;;13.11;70.06;102682.13;5034954;28;20045;-62
2022/11/11 10:50:37;;;;;;;19.75;8.98;;;;;;;14.19;65.03;102676.78;5034887;28;20053;-60
2022/11/11 10:54:04;;;;;;;18.20;7.68;;;;;;;15.11;62.52;102683.13;5017283;28;20044;-61
2022/11/11 10:56:59;;;;;;;23.67;8.63;;;;;;;15.79;60.06;102685.94;5035983;28;20049;-60
2022/11/11 10:59:58;;;;;;;18.67;7.90;;;;;;;15.39;59.87;102683.31;5042673;28;20050;-62
2022/11/11 11:02:58;;;;;;;23.05;7.20;;;;;;;15.66;59.00;102679.97;5023027;28;20052;-61
2022/11/11 11:05:52;;;;;;;21.77;8.45;;;;;;;15.59;59.05;102681.50;5030928;28;20113;-60
2022/11/11 11:08:44;;;;;;;17.70;7.90;;;;;;;15.86;58.69;102688.88;5025670;28;20073;-60
2022/11/11 11:11:39;;;;;;;22.33;7.90;;;;;;;16.83;55.43;102687.84;5023639;28;20395;-60
2022/11/11 11:14:31;;;;;;;17.00;7.18;;;;;;;17.24;53.89;102693.66;5028433;28;20045;-60
2022/11/11 11:17:23;;;;;;;17.87;7.03;;;;;;;17.64;52.36;102690.56;5035068;28;20037;-60
2022/11/11 11:20:17;;;;;;;17.95;7.43;;;;;;;17.12;53.13;102682.31;5011695;28;20045;-60
2022/11/11 11:23:04;;;;;;;23.45;7.70;;;;;;;16.74;54.30;102684.16;5033411;28;20732;-60
2022/11/11 11:25:54;;;;;;;21.17;6.80;;;;;;;16.85;53.64;102685.84;5002182;28;20531;-60
2022/11/11 11:29:02;;;;;;;18.90;6.90;;;;;;;17.48;52.66;102681.50;5030731;28;20494;-60
2022/11/11 11:31:49;;;;;;;19.13;7.05;;;;;;;17.38;51.64;102689.63;5013468;28;20042;-60
2022/11/11 11:34:53;;;;;;;19.45;6.88;;;;;;;17.22;52.58;102685.75;5032587;28;20495;-60
2022/11/11 11:37:49;;;;;;;19.63;6.70;;;;;;;17.55;53.05;102685.25;5012073;28;20132;-60
2022/11/11 11:40:55;;;;;;;17.23;6.75;;;;;;;17.30;52.68;102678.81;4964435;28;20049;-60
2022/11/11 11:43:43;;;;;;;16.00;6.93;;;;;;;16.34;55.17;102679.94;5022598;28;20038;-60
2022/11/11 11:46:36;;;;;;;18.17;6.53;;;;;;;16.78;54.02;102676.69;5007156;28;20050;-60
2022/11/11 11:49:49;;;;;;;15.70;6.32;;;;;;;16.24;56.32;102679.09;5032549;28;20045;-60
2022/11/11 11:53:05;;;;;;;17.80;5.97;;;;;;;15.66;57.97;102671.94;5033474;28;20418;-60
2022/11/11 11:56:05;;;;;;;19.05;6.70;;;;;;;14.64;60.10;102659.63;5027977;28;20156;-60
2022/11/11 11:59:32;;;;;;;19.02;6.40;;;;;;;14.63;61.29;102655.28;5017630;28;20050;-60
2022/11/11 12:02:50;;;;;;;18.33;5.93;;;;;;;14.40;61.84;102662.56;5023424;28;20045;-60
2022/11/11 12:05:45;;;;;;;14.63;6.20;;;;;;;14.18;62.55;102656.41;5033295;28;20540;-60
2022/11/11 12:09:04;;;;;;;15.77;6.10;;;;;;;14.63;62.44;102649.09;5030354;28;20034;-60
2022/11/11 12:12:04;;;;;;;72.65;33.05;;;;;;;14.61;62.49;102646.56;5004289;28;20116;-58
2022/11/11 12:15:18;;;;;;;16.02;6.53;;;;;;;14.74;62.40;102643.66;5001651;28;20061;-58
2022/11/11 12:18:34;;;;;;;18.27;6.82;;;;;;;15.06;60.75;102640.78;5029078;28;20822;-59
2022/11/11 12:21:24;;;;;;;13.35;6.05;;;;;;;15.48;59.26;102647.72;5027699;28;20099;-60
2022/11/11 12:24:50;;;;;;;15.40;5.78;;;;;;;15.93;57.75;102639.13;5024239;28;20113;-60
2022/11/11 12:28:04;;;;;;;20.95;5.32;;;;;;;16.21;56.71;102636.53;5032322;28;20058;-60
2022/11/11 12:31:22;;;;;;;13.02;5.43;;;;;;;16.41;55.59;102622.13;5028891;28;20041;-60
2022/11/11 12:34:37;;;;;;;13.73;6.00;;;;;;;16.30;57.18;102624.97;5029273;28;20172;-59
2022/11/11 12:37:40;;;;;;;12.50;5.65;;;;;;;16.14;57.67;102622.06;5025715;28;20059;-60
2022/11/11 12:40:54;;;;;;;18.75;6.32;;;;;;;16.14;57.26;102614.88;4987188;28;20033;-60
2022/11/11 12:46:48;;;;;;;14.77;4.90;;;;;;;16.42;56.33;102609.56;5110695;27;20343;-59
2022/11/11 12:50:06;;;;;;;13.38;5.10;;;;;;;16.43;55.63;102609.41;5108419;28;20494;-60
2022/11/11 12:53:32;;;;;;;15.30;5.28;;;;;;;16.36;56.33;102608.31;5083545;28;20146;-60
2022/11/11 12:56:35;;;;;;;13.00;4.32;;;;;;;16.28;55.77;102605.50;5077748;28;20094;-60
2022/11/11 13:00:02;;;;;;;13.27;4.95;;;;;;;16.62;55.37;102608.47;5094584;28;20053;-60
2022/11/11 13:03:29;;;;;;;16.38;4.60;;;;;;;17.15;53.58;102614.13;5089953;28;20048;-60
2022/11/11 13:09:20;;;;;;;11.93;4.40;;;;;;;18.05;51.17;102603.34;5103700;27;20392;-59
2022/11/11 13:12:21;;;;;;;20.63;5.60;;;;;;;17.92;50.98;102601.03;5089992;28;20156;-61
2022/11/11 13:15:20;;;;;;;13.35;4.10;;;;;;;17.33;52.21;102596.19;5076267;28;20032;-60
2022/11/11 13:18:14;;;;;;;13.55;4.47;;;;;;;16.44;55.58;102597.69;5085781;28;20028;-60
2022/11/11 13:21:05;;;;;;;15.02;4.57;;;;;;;16.31;55.55;102599.88;5081777;28;20059;-60
2022/11/11 13:23:52;;;;;;;12.60;4.18;;;;;;;15.73;57.23;102607.03;5090475;28;20044;-60
2022/11/11 13:26:43;;;;;;;11.63;4.30;;;;;;;15.50;58.45;102602.97;5083882;28;20036;-60
2022/11/11 13:29:59;;;;;;;11.50;4.60;;;;;;;15.21;59.99;102601.13;5083291;28;20135;-59
2022/11/11 13:32:51;;;;;;;15.35;4.43;;;;;;;15.12;60.36;102596.63;5078220;28;20094;-59
2022/11/11 13:35:42;;;;;;;12.43;3.97;;;;;;;15.10;59.68;102601.28;5084735;28;20464;-59
2022/11/11 13:38:34;;;;;;;13.68;4.03;;;;;;;14.97;60.36;102597.03;5083373;28;20520;-59
2022/11/11 13:41:26;;;;;;;20.73;4.70;;;;;;;14.96;60.98;102594.47;5045158;28;20052;-59
2022/11/11 13:44:23;;;;;;;11.00;4.15;;;;;;;14.76;61.25;102590.91;5079826;28;20048;-60
2022/11/11 13:47:18;;;;;;;14.68;4.18;;;;;;;14.74;61.63;102584.88;5087624;28;20029;-61
2022/11/11 13:50:12;;;;;;;12.27;3.92;;;;;;;14.68;62.06;102588.06;5069239;28;20102;-62
2022/11/11 13:53:02;;;;;;;15.75;4.35;;;;;;;14.58;62.58;102593.41;5085422;28;20054;-61
2022/11/11 13:55:58;;;;;;;11.38;3.63;;;;;;;14.59;63.38;102582.59;5086782;28;20401;-61
2022/11/11 13:58:48;;;;;;;9.93;4.20;;;;;;;14.49;63.44;102589.66;5088248;28;20489;-61
2022/11/11 14:01:39;;;;;;;13.02;4.00;;;;;;;14.52;63.50;102588.56;5089071;28;20102;-61
2022/11/11 14:04:27;;;;;;;14.80;4.45;;;;;;;14.47;63.31;102588.97;5087547;28;20133;-61
2022/11/11 14:07:53;;;;;;;11.63;3.83;;;;;;;14.35;63.82;102598.91;5088397;28;20135;-61
2022/11/11 14:10:50;;;;;;;13.82;3.67;;;;;;;14.35;63.20;102590.91;5087740;28;20562;-60
2022/11/11 14:13:39;;;;;;;19.15;3.85;;;;;;;14.30;63.39;102592.28;5088855;28;20040;-59
2022/11/11 14:22:22;;;;;;;13.60;3.70;;;;;;;14.04;64.51;102578.50;5110798;27;20862;-60
2022/11/11 14:25:26;;;;;;;13.52;3.45;;;;;;;13.89;64.35;102583.34;5110672;28;20048;-60
2022/11/11 14:28:35;;;;;;;11.57;3.50;;;;;;;14.02;64.88;102579.50;5096747;28;20044;-60
2022/11/11 14:31:42;;;;;;;10.77;3.90;;;;;;;13.93;65.16;102584.75;5090207;28;20546;-61
2022/11/11 14:34:58;;;;;;;12.77;3.60;;;;;;;14.03;64.71;102588.34;5089032;28;20582;-60
2022/11/11 14:38:15;;;;;;;10.30;3.70;;;;;;;13.91;64.66;102581.38;5088751;28;20136;-61